リヤド の空港の天気 - METARとTAF

キング・ハーリド国際空港(リヤド) ( OERK / RUH ) - サウジアラビア リヤド
飛行場実況気象(Metar)
観測時間02/20 18:00 AST (02/20 15:00 UTC)
風向・風速静穏 0m/s
視程7000m
天気現象
少しの雲 雲底高度 1070m
全天の4割程度の雲 雲底高度 1220m
全天を覆う雲 雲底高度 2440m
気温11℃
湿度76%
気圧1022hPa
METAROERK 201500Z 00000KT 7000 FEW035 SCT040 OVC080 11/07 Q1022 NOSIG
過去の天気等 Google飛行場航空写真 Wunderground天気予報

過去48時間のMETAR

飛行場予報(TAF)
発表時間: 2/20 13:00 AST (2/20 10:00 UTC)
予報対象時間: 20日15時 AST ~ 21日21時 AST
風向・風速東 3m/s 瞬間風速 8m/s
視程7,000m
全天の4割程度の雲 雲底高度 1,220m
全天の8割程度の雲 雲底高度 2,440m
20日15時 AST ~ 20日21時 AST に一時的に
風向・風速不定 10m/s
視程4,000m
TAF OERK 201000Z 2012/2118 10006G16KT 7000 SCT040 BKN080
TEMPO 2012/2018 VRB20KT 4000 BLDU/TSRA FEW035CB BKN040